sensor_id;sensor_type;location;lat;lon;timestamp;P1;durP1;ratioP1;P2;durP2;ratioP2
47299;SDS011;33036;51.320;17.234;2022-07-24T00:03:14;11.40;;;8.52;;
47299;SDS011;33036;51.320;17.234;2022-07-24T00:07:15;12.98;;;8.32;;
47299;SDS011;33036;51.320;17.234;2022-07-24T00:11:16;15.85;;;9.13;;
47299;SDS011;33036;51.320;17.234;2022-07-24T00:15:17;13.35;;;8.80;;
47299;SDS011;33036;51.320;17.234;2022-07-24T00:19:18;12.95;;;8.82;;
47299;SDS011;33036;51.320;17.234;2022-07-24T00:23:19;17.58;;;9.13;;
47299;SDS011;33036;51.320;17.234;2022-07-24T00:27:22;14.20;;;9.77;;
47299;SDS011;33036;51.320;17.234;2022-07-24T00:31:23;11.82;;;9.32;;
47299;SDS011;33036;51.320;17.234;2022-07-24T00:35:24;13.60;;;9.55;;
47299;SDS011;33036;51.320;17.234;2022-07-24T00:39:24;13.15;;;10.80;;
47299;SDS011;33036;51.320;17.234;2022-07-24T00:43:25;13.85;;;10.25;;
47299;SDS011;33036;51.320;17.234;2022-07-24T00:47:26;15.32;;;9.32;;
47299;SDS011;33036;51.320;17.234;2022-07-24T00:51:27;23.75;;;10.55;;
47299;SDS011;33036;51.320;17.234;2022-07-24T00:55:28;16.80;;;10.38;;
47299;SDS011;33036;51.320;17.234;2022-07-24T00:59:29;13.10;;;10.20;;
47299;SDS011;33036;51.320;17.234;2022-07-24T01:03:30;12.43;;;10.02;;
47299;SDS011;33036;51.320;17.234;2022-07-24T01:07:32;12.98;;;8.80;;
47299;SDS011;33036;51.320;17.234;2022-07-24T01:11:32;17.10;;;9.70;;
47299;SDS011;33036;51.320;17.234;2022-07-24T01:15:33;13.98;;;8.60;;
47299;SDS011;33036;51.320;17.234;2022-07-24T01:19:34;17.67;;;8.38;;
47299;SDS011;33036;51.320;17.234;2022-07-24T01:23:35;13.05;;;7.93;;
47299;SDS011;33036;51.320;17.234;2022-07-24T01:27:36;18.05;;;8.82;;
47299;SDS011;33036;51.320;17.234;2022-07-24T01:31:38;16.77;;;8.30;;
47299;SDS011;33036;51.320;17.234;2022-07-24T01:35:39;14.98;;;8.95;;
47299;SDS011;33036;51.320;17.234;2022-07-24T01:39:40;10.75;;;8.52;;
47299;SDS011;33036;51.320;17.234;2022-07-24T01:43:41;12.50;;;8.52;;
47299;SDS011;33036;51.320;17.234;2022-07-24T01:47:42;10.30;;;7.90;;
47299;SDS011;33036;51.320;17.234;2022-07-24T01:51:43;19.75;;;8.38;;
47299;SDS011;33036;51.320;17.234;2022-07-24T01:55:45;11.25;;;7.53;;
47299;SDS011;33036;51.320;17.234;2022-07-24T01:59:45;11.50;;;7.80;;
47299;SDS011;33036;51.320;17.234;2022-07-24T02:03:47;11.90;;;7.78;;
47299;SDS011;33036;51.320;17.234;2022-07-24T02:07:53;14.50;;;7.35;;
47299;SDS011;33036;51.320;17.234;2022-07-24T02:11:56;16.55;;;7.47;;
47299;SDS011;33036;51.320;17.234;2022-07-24T02:15:57;10.98;;;7.30;;
47299;SDS011;33036;51.320;17.234;2022-07-24T02:19:58;12.75;;;7.95;;
47299;SDS011;33036;51.320;17.234;2022-07-24T02:23:59;16.45;;;8.00;;
47299;SDS011;33036;51.320;17.234;2022-07-24T02:28:00;13.90;;;6.72;;
47299;SDS011;33036;51.320;17.234;2022-07-24T02:32:01;12.82;;;7.13;;
47299;SDS011;33036;51.320;17.234;2022-07-24T02:36:02;13.00;;;7.38;;
47299;SDS011;33036;51.320;17.234;2022-07-24T02:40:04;17.35;;;7.15;;
47299;SDS011;33036;51.320;17.234;2022-07-24T02:44:07;13.73;;;7.53;;
47299;SDS011;33036;51.320;17.234;2022-07-24T02:48:07;11.95;;;6.80;;
47299;SDS011;33036;51.320;17.234;2022-07-24T02:52:08;15.75;;;7.82;;
47299;SDS011;33036;51.320;17.234;2022-07-24T02:56:09;13.38;;;6.88;;
47299;SDS011;33036;51.320;17.234;2022-07-24T03:00:11;11.07;;;7.60;;
47299;SDS011;33036;51.320;17.234;2022-07-24T03:04:14;14.85;;;9.05;;
47299;SDS011;33036;51.320;17.234;2022-07-24T03:08:15;16.23;;;7.88;;
47299;SDS011;33036;51.320;17.234;2022-07-24T03:12:16;12.30;;;7.88;;
47299;SDS011;33036;51.320;17.234;2022-07-24T03:16:17;19.50;;;7.97;;
47299;SDS011;33036;51.320;17.234;2022-07-24T03:20:19;12.55;;;9.05;;
47299;SDS011;33036;51.320;17.234;2022-07-24T03:24:21;13.95;;;9.85;;
47299;SDS011;33036;51.320;17.234;2022-07-24T03:28:21;16.48;;;9.65;;
47299;SDS011;33036;51.320;17.234;2022-07-24T03:32:22;20.05;;;10.38;;
47299;SDS011;33036;51.320;17.234;2022-07-24T03:36:23;13.82;;;10.20;;
47299;SDS011;33036;51.320;17.234;2022-07-24T03:40:24;17.35;;;9.88;;
47299;SDS011;33036;51.320;17.234;2022-07-24T03:44:25;16.80;;;10.57;;
47299;SDS011;33036;51.320;17.234;2022-07-24T03:48:26;16.13;;;9.98;;
47299;SDS011;33036;51.320;17.234;2022-07-24T03:52:27;14.10;;;10.02;;
47299;SDS011;33036;51.320;17.234;2022-07-24T03:56:28;17.27;;;10.00;;
47299;SDS011;33036;51.320;17.234;2022-07-24T04:00:29;11.85;;;9.27;;
47299;SDS011;33036;51.320;17.234;2022-07-24T04:04:30;16.20;;;11.02;;
47299;SDS011;33036;51.320;17.234;2022-07-24T04:08:31;14.75;;;10.48;;
47299;SDS011;33036;51.320;17.234;2022-07-24T04:12:33;14.88;;;10.93;;
47299;SDS011;33036;51.320;17.234;2022-07-24T04:16:34;17.95;;;11.02;;
47299;SDS011;33036;51.320;17.234;2022-07-24T04:20:35;17.77;;;10.85;;
47299;SDS011;33036;51.320;17.234;2022-07-24T04:24:36;15.43;;;11.43;;
47299;SDS011;33036;51.320;17.234;2022-07-24T04:28:37;21.88;;;12.02;;
47299;SDS011;33036;51.320;17.234;2022-07-24T04:32:38;19.35;;;11.80;;
47299;SDS011;33036;51.320;17.234;2022-07-24T04:36:39;21.33;;;12.07;;
47299;SDS011;33036;51.320;17.234;2022-07-24T04:40:40;22.05;;;12.32;;
47299;SDS011;33036;51.320;17.234;2022-07-24T04:44:42;17.00;;;11.75;;
47299;SDS011;33036;51.320;17.234;2022-07-24T04:48:43;20.00;;;13.35;;
47299;SDS011;33036;51.320;17.234;2022-07-24T04:52:44;17.23;;;12.27;;
47299;SDS011;33036;51.320;17.234;2022-07-24T04:56:45;20.27;;;11.68;;
47299;SDS011;33036;51.320;17.234;2022-07-24T05:00:46;23.90;;;11.85;;
47299;SDS011;33036;51.320;17.234;2022-07-24T05:04:47;19.48;;;12.20;;
47299;SDS011;33036;51.320;17.234;2022-07-24T05:08:48;20.27;;;11.25;;
47299;SDS011;33036;51.320;17.234;2022-07-24T05:12:49;16.25;;;12.27;;
47299;SDS011;33036;51.320;17.234;2022-07-24T05:16:50;17.40;;;12.27;;
47299;SDS011;33036;51.320;17.234;2022-07-24T05:20:50;17.48;;;11.35;;
47299;SDS011;33036;51.320;17.234;2022-07-24T05:24:51;25.45;;;13.07;;
47299;SDS011;33036;51.320;17.234;2022-07-24T05:28:52;19.70;;;10.93;;
47299;SDS011;33036;51.320;17.234;2022-07-24T05:32:53;18.50;;;11.38;;
47299;SDS011;33036;51.320;17.234;2022-07-24T05:36:54;18.50;;;10.48;;
47299;SDS011;33036;51.320;17.234;2022-07-24T05:40:55;14.50;;;10.68;;
47299;SDS011;33036;51.320;17.234;2022-07-24T05:44:56;13.68;;;9.25;;
47299;SDS011;33036;51.320;17.234;2022-07-24T05:48:57;17.50;;;8.90;;
47299;SDS011;33036;51.320;17.234;2022-07-24T05:52:58;12.32;;;8.18;;
47299;SDS011;33036;51.320;17.234;2022-07-24T05:56:59;16.33;;;7.82;;
47299;SDS011;33036;51.320;17.234;2022-07-24T06:01:00;14.48;;;8.55;;
47299;SDS011;33036;51.320;17.234;2022-07-24T06:05:01;14.43;;;7.13;;
47299;SDS011;33036;51.320;17.234;2022-07-24T06:09:02;10.55;;;7.13;;
47299;SDS011;33036;51.320;17.234;2022-07-24T06:13:04;13.82;;;5.97;;
47299;SDS011;33036;51.320;17.234;2022-07-24T06:17:05;9.75;;;5.78;;
47299;SDS011;33036;51.320;17.234;2022-07-24T06:21:06;12.77;;;5.82;;
47299;SDS011;33036;51.320;17.234;2022-07-24T06:25:07;8.98;;;5.32;;
47299;SDS011;33036;51.320;17.234;2022-07-24T06:29:09;7.85;;;4.65;;
47299;SDS011;33036;51.320;17.234;2022-07-24T06:33:10;8.80;;;5.15;;
47299;SDS011;33036;51.320;17.234;2022-07-24T06:37:11;9.38;;;4.85;;
47299;SDS011;33036;51.320;17.234;2022-07-24T06:41:12;8.02;;;4.60;;
47299;SDS011;33036;51.320;17.234;2022-07-24T06:45:13;9.98;;;5.13;;
47299;SDS011;33036;51.320;17.234;2022-07-24T06:49:14;11.73;;;6.43;;
47299;SDS011;33036;51.320;17.234;2022-07-24T06:53:15;10.07;;;4.97;;
47299;SDS011;33036;51.320;17.234;2022-07-24T06:57:16;5.35;;;3.45;;
47299;SDS011;33036;51.320;17.234;2022-07-24T07:01:18;5.28;;;3.40;;
47299;SDS011;33036;51.320;17.234;2022-07-24T07:05:22;8.65;;;3.45;;
47299;SDS011;33036;51.320;17.234;2022-07-24T07:09:24;10.82;;;3.45;;
47299;SDS011;33036;51.320;17.234;2022-07-24T07:13:25;9.85;;;3.13;;
47299;SDS011;33036;51.320;17.234;2022-07-24T07:17:26;9.80;;;3.50;;
47299;SDS011;33036;51.320;17.234;2022-07-24T07:21:27;6.65;;;2.75;;
47299;SDS011;33036;51.320;17.234;2022-07-24T07:25:28;11.38;;;2.92;;
47299;SDS011;33036;51.320;17.234;2022-07-24T07:29:29;5.80;;;2.70;;
47299;SDS011;33036;51.320;17.234;2022-07-24T07:33:30;5.60;;;2.58;;
47299;SDS011;33036;51.320;17.234;2022-07-24T07:37:31;6.40;;;1.90;;
47299;SDS011;33036;51.320;17.234;2022-07-24T07:41:32;5.15;;;2.65;;
47299;SDS011;33036;51.320;17.234;2022-07-24T07:45:33;9.68;;;1.90;;
47299;SDS011;33036;51.320;17.234;2022-07-24T07:49:34;4.05;;;1.88;;
47299;SDS011;33036;51.320;17.234;2022-07-24T07:53:35;1.67;;;1.55;;
47299;SDS011;33036;51.320;17.234;2022-07-24T07:57:36;5.15;;;1.90;;
47299;SDS011;33036;51.320;17.234;2022-07-24T08:01:38;3.15;;;1.70;;
47299;SDS011;33036;51.320;17.234;2022-07-24T08:05:39;4.03;;;1.65;;
47299;SDS011;33036;51.320;17.234;2022-07-24T08:09:41;6.15;;;2.10;;
47299;SDS011;33036;51.320;17.234;2022-07-24T08:13:42;4.22;;;1.90;;
47299;SDS011;33036;51.320;17.234;2022-07-24T08:17:43;2.40;;;1.80;;
47299;SDS011;33036;51.320;17.234;2022-07-24T08:21:44;2.58;;;1.40;;
47299;SDS011;33036;51.320;17.234;2022-07-24T08:25:46;4.20;;;1.70;;
47299;SDS011;33036;51.320;17.234;2022-07-24T08:29:47;1.65;;;1.30;;
47299;SDS011;33036;51.320;17.234;2022-07-24T08:33:48;3.30;;;1.40;;
47299;SDS011;33036;51.320;17.234;2022-07-24T08:37:49;4.10;;;1.65;;
47299;SDS011;33036;51.320;17.234;2022-07-24T08:41:50;3.08;;;1.42;;
47299;SDS011;33036;51.320;17.234;2022-07-24T08:45:51;2.33;;;1.65;;
47299;SDS011;33036;51.320;17.234;2022-07-24T08:49:55;3.35;;;1.65;;
47299;SDS011;33036;51.320;17.234;2022-07-24T08:53:58;4.15;;;1.80;;
47299;SDS011;33036;51.320;17.234;2022-07-24T08:58:00;3.33;;;1.58;;
47299;SDS011;33036;51.320;17.234;2022-07-24T09:02:01;7.47;;;2.28;;
47299;SDS011;33036;51.320;17.234;2022-07-24T09:06:02;4.95;;;1.40;;
47299;SDS011;33036;51.320;17.234;2022-07-24T09:10:08;5.38;;;1.20;;
47299;SDS011;33036;51.320;17.234;2022-07-24T09:14:12;4.05;;;1.65;;
47299;SDS011;33036;51.320;17.234;2022-07-24T09:18:32;3.92;;;1.35;;
47299;SDS011;33036;51.320;17.234;2022-07-24T09:22:35;3.03;;;1.20;;
47299;SDS011;33036;51.320;17.234;2022-07-24T09:30:46;5.35;;;1.13;;
47299;SDS011;33036;51.320;17.234;2022-07-24T09:34:50;3.55;;;1.23;;
47299;SDS011;33036;51.320;17.234;2022-07-24T09:38:52;6.13;;;1.10;;
47299;SDS011;33036;51.320;17.234;2022-07-24T09:42:55;1.42;;;0.90;;
47299;SDS011;33036;51.320;17.234;2022-07-24T09:47:12;2.15;;;1.20;;
47299;SDS011;33036;51.320;17.234;2022-07-24T09:51:15;3.47;;;1.17;;
47299;SDS011;33036;51.320;17.234;2022-07-24T09:55:20;1.42;;;1.33;;
47299;SDS011;33036;51.320;17.234;2022-07-24T09:59:23;1.98;;;1.00;;
47299;SDS011;33036;51.320;17.234;2022-07-24T10:03:31;4.13;;;1.20;;
47299;SDS011;33036;51.320;17.234;2022-07-24T10:07:35;3.22;;;1.00;;
47299;SDS011;33036;51.320;17.234;2022-07-24T10:11:37;3.50;;;1.05;;
47299;SDS011;33036;51.320;17.234;2022-07-24T10:15:44;2.05;;;0.90;;
47299;SDS011;33036;51.320;17.234;2022-07-24T10:20:12;4.20;;;1.05;;
47299;SDS011;33036;51.320;17.234;2022-07-24T10:28:35;2.50;;;1.15;;
47299;SDS011;33036;51.320;17.234;2022-07-24T10:32:38;3.75;;;1.10;;
47299;SDS011;33036;51.320;17.234;2022-07-24T10:36:42;3.33;;;1.10;;
47299;SDS011;33036;51.320;17.234;2022-07-24T10:40:49;2.33;;;1.05;;
47299;SDS011;33036;51.320;17.234;2022-07-24T10:49:32;2.22;;;1.00;;
47299;SDS011;33036;51.320;17.234;2022-07-24T10:57:54;4.95;;;1.10;;
47299;SDS011;33036;51.320;17.234;2022-07-24T11:01:56;2.65;;;1.00;;
47299;SDS011;33036;51.320;17.234;2022-07-24T11:10:08;2.00;;;1.10;;
47299;SDS011;33036;51.320;17.234;2022-07-24T11:14:09;2.67;;;1.00;;
47299;SDS011;33036;51.320;17.234;2022-07-24T11:18:14;2.50;;;1.08;;
47299;SDS011;33036;51.320;17.234;2022-07-24T11:22:15;2.42;;;1.00;;
47299;SDS011;33036;51.320;17.234;2022-07-24T11:30:42;2.53;;;1.10;;
47299;SDS011;33036;51.320;17.234;2022-07-24T11:34:50;1.60;;;1.08;;
47299;SDS011;33036;51.320;17.234;2022-07-24T11:38:52;3.50;;;1.10;;
47299;SDS011;33036;51.320;17.234;2022-07-24T11:43:05;2.22;;;1.10;;
47299;SDS011;33036;51.320;17.234;2022-07-24T11:47:10;1.25;;;0.98;;
47299;SDS011;33036;51.320;17.234;2022-07-24T11:51:14;2.80;;;1.00;;
47299;SDS011;33036;51.320;17.234;2022-07-24T11:55:16;2.70;;;1.13;;
47299;SDS011;33036;51.320;17.234;2022-07-24T11:59:26;1.15;;;0.80;;
47299;SDS011;33036;51.320;17.234;2022-07-24T12:03:33;2.83;;;1.65;;
47299;SDS011;33036;51.320;17.234;2022-07-24T12:07:34;2.95;;;1.20;;
47299;SDS011;33036;51.320;17.234;2022-07-24T12:11:36;1.13;;;0.80;;
47299;SDS011;33036;51.320;17.234;2022-07-24T12:15:37;1.58;;;1.02;;
47299;SDS011;33036;51.320;17.234;2022-07-24T12:19:39;3.30;;;1.10;;
47299;SDS011;33036;51.320;17.234;2022-07-24T12:23:39;4.15;;;1.02;;
47299;SDS011;33036;51.320;17.234;2022-07-24T12:27:43;2.50;;;1.27;;
47299;SDS011;33036;51.320;17.234;2022-07-24T12:31:47;2.63;;;1.17;;
47299;SDS011;33036;51.320;17.234;2022-07-24T12:36:11;1.90;;;0.90;;
47299;SDS011;33036;51.320;17.234;2022-07-24T12:40:21;2.97;;;1.00;;
47299;SDS011;33036;51.320;17.234;2022-07-24T12:44:39;3.08;;;1.23;;
47299;SDS011;33036;51.320;17.234;2022-07-24T12:53:17;3.88;;;1.00;;
47299;SDS011;33036;51.320;17.234;2022-07-24T12:57:22;1.90;;;1.23;;
47299;SDS011;33036;51.320;17.234;2022-07-24T13:01:24;5.10;;;1.13;;
47299;SDS011;33036;51.320;17.234;2022-07-24T13:05:36;5.80;;;1.27;;
47299;SDS011;33036;51.320;17.234;2022-07-24T13:09:38;2.45;;;1.10;;
47299;SDS011;33036;51.320;17.234;2022-07-24T13:13:39;3.25;;;1.17;;
47299;SDS011;33036;51.320;17.234;2022-07-24T13:17:40;1.55;;;1.17;;
47299;SDS011;33036;51.320;17.234;2022-07-24T13:21:41;1.63;;;0.98;;
47299;SDS011;33036;51.320;17.234;2022-07-24T13:25:43;4.07;;;1.00;;
47299;SDS011;33036;51.320;17.234;2022-07-24T13:29:45;1.48;;;1.00;;
47299;SDS011;33036;51.320;17.234;2022-07-24T13:33:46;3.33;;;1.20;;
47299;SDS011;33036;51.320;17.234;2022-07-24T13:37:48;1.73;;;1.10;;
47299;SDS011;33036;51.320;17.234;2022-07-24T13:41:49;7.13;;;1.23;;
47299;SDS011;33036;51.320;17.234;2022-07-24T13:45:56;3.03;;;1.20;;
47299;SDS011;33036;51.320;17.234;2022-07-24T13:49:57;2.55;;;1.00;;
47299;SDS011;33036;51.320;17.234;2022-07-24T13:53:58;2.28;;;1.13;;
47299;SDS011;33036;51.320;17.234;2022-07-24T13:58:00;1.92;;;1.17;;
47299;SDS011;33036;51.320;17.234;2022-07-24T14:02:01;2.17;;;0.98;;
47299;SDS011;33036;51.320;17.234;2022-07-24T14:06:02;0.98;;;0.88;;
47299;SDS011;33036;51.320;17.234;2022-07-24T14:10:04;2.33;;;0.80;;
47299;SDS011;33036;51.320;17.234;2022-07-24T14:14:05;1.85;;;0.95;;
47299;SDS011;33036;51.320;17.234;2022-07-24T14:18:06;2.53;;;0.70;;
47299;SDS011;33036;51.320;17.234;2022-07-24T14:22:08;1.15;;;1.05;;
47299;SDS011;33036;51.320;17.234;2022-07-24T14:26:10;1.38;;;0.85;;
47299;SDS011;33036;51.320;17.234;2022-07-24T14:30:12;1.95;;;0.90;;
47299;SDS011;33036;51.320;17.234;2022-07-24T14:34:14;1.10;;;0.80;;
47299;SDS011;33036;51.320;17.234;2022-07-24T14:38:15;1.48;;;1.00;;
47299;SDS011;33036;51.320;17.234;2022-07-24T14:42:19;3.80;;;1.05;;
47299;SDS011;33036;51.320;17.234;2022-07-24T14:46:21;1.73;;;0.98;;
47299;SDS011;33036;51.320;17.234;2022-07-24T14:50:21;1.30;;;0.90;;
47299;SDS011;33036;51.320;17.234;2022-07-24T14:54:25;1.52;;;0.93;;
47299;SDS011;33036;51.320;17.234;2022-07-24T14:58:26;1.08;;;0.90;;
47299;SDS011;33036;51.320;17.234;2022-07-24T15:02:27;1.58;;;0.80;;
47299;SDS011;33036;51.320;17.234;2022-07-24T15:06:29;2.22;;;0.90;;
47299;SDS011;33036;51.320;17.234;2022-07-24T15:10:30;3.42;;;0.80;;
47299;SDS011;33036;51.320;17.234;2022-07-24T15:14:31;4.50;;;0.73;;
47299;SDS011;33036;51.320;17.234;2022-07-24T15:18:32;1.30;;;0.88;;
47299;SDS011;33036;51.320;17.234;2022-07-24T15:22:33;3.15;;;0.90;;
47299;SDS011;33036;51.320;17.234;2022-07-24T15:26:34;1.13;;;0.77;;
47299;SDS011;33036;51.320;17.234;2022-07-24T15:30:36;2.40;;;0.90;;
47299;SDS011;33036;51.320;17.234;2022-07-24T15:34:37;3.45;;;0.98;;
47299;SDS011;33036;51.320;17.234;2022-07-24T15:38:38;1.08;;;0.73;;
47299;SDS011;33036;51.320;17.234;2022-07-24T15:42:39;3.65;;;0.93;;
47299;SDS011;33036;51.320;17.234;2022-07-24T15:46:40;1.10;;;0.90;;
47299;SDS011;33036;51.320;17.234;2022-07-24T15:50:41;2.88;;;1.40;;
47299;SDS011;33036;51.320;17.234;2022-07-24T15:54:42;1.02;;;0.85;;
47299;SDS011;33036;51.320;17.234;2022-07-24T15:58:43;1.27;;;0.88;;
47299;SDS011;33036;51.320;17.234;2022-07-24T16:02:44;1.45;;;0.82;;
47299;SDS011;33036;51.320;17.234;2022-07-24T16:06:45;1.55;;;1.00;;
47299;SDS011;33036;51.320;17.234;2022-07-24T16:10:47;2.20;;;0.90;;
47299;SDS011;33036;51.320;17.234;2022-07-24T16:14:48;5.70;;;1.00;;
47299;SDS011;33036;51.320;17.234;2022-07-24T16:18:49;1.60;;;1.20;;
47299;SDS011;33036;51.320;17.234;2022-07-24T16:22:50;1.98;;;0.90;;
47299;SDS011;33036;51.320;17.234;2022-07-24T16:26:51;1.42;;;0.90;;
47299;SDS011;33036;51.320;17.234;2022-07-24T16:30:53;2.15;;;0.95;;
47299;SDS011;33036;51.320;17.234;2022-07-24T16:34:54;1.10;;;0.77;;
47299;SDS011;33036;51.320;17.234;2022-07-24T16:38:55;3.22;;;1.00;;
47299;SDS011;33036;51.320;17.234;2022-07-24T16:42:56;1.70;;;1.00;;
47299;SDS011;33036;51.320;17.234;2022-07-24T16:46:57;4.28;;;0.90;;
47299;SDS011;33036;51.320;17.234;2022-07-24T16:50:58;1.08;;;0.90;;
47299;SDS011;33036;51.320;17.234;2022-07-24T16:55:00;1.52;;;0.90;;
47299;SDS011;33036;51.320;17.234;2022-07-24T16:59:01;3.13;;;0.90;;
47299;SDS011;33036;51.320;17.234;2022-07-24T17:03:02;1.67;;;0.90;;
47299;SDS011;33036;51.320;17.234;2022-07-24T17:07:03;1.95;;;1.10;;
47299;SDS011;33036;51.320;17.234;2022-07-24T17:11:04;3.22;;;1.15;;
47299;SDS011;33036;51.320;17.234;2022-07-24T17:15:05;3.97;;;1.10;;
47299;SDS011;33036;51.320;17.234;2022-07-24T17:19:07;1.70;;;1.13;;
47299;SDS011;33036;51.320;17.234;2022-07-24T17:23:09;1.50;;;1.00;;
47299;SDS011;33036;51.320;17.234;2022-07-24T17:27:11;3.25;;;1.13;;
47299;SDS011;33036;51.320;17.234;2022-07-24T17:31:12;1.25;;;0.60;;
47299;SDS011;33036;51.320;17.234;2022-07-24T17:35:13;2.72;;;0.88;;
47299;SDS011;33036;51.320;17.234;2022-07-24T17:39:14;2.83;;;1.10;;
47299;SDS011;33036;51.320;17.234;2022-07-24T17:43:15;2.13;;;1.23;;
47299;SDS011;33036;51.320;17.234;2022-07-24T17:47:16;2.17;;;1.10;;
47299;SDS011;33036;51.320;17.234;2022-07-24T17:51:17;4.20;;;1.30;;
47299;SDS011;33036;51.320;17.234;2022-07-24T17:55:18;1.98;;;1.30;;
47299;SDS011;33036;51.320;17.234;2022-07-24T17:59:19;2.53;;;1.17;;
47299;SDS011;33036;51.320;17.234;2022-07-24T18:03:20;2.25;;;1.20;;
47299;SDS011;33036;51.320;17.234;2022-07-24T18:07:21;2.03;;;1.08;;
47299;SDS011;33036;51.320;17.234;2022-07-24T18:11:22;2.70;;;0.95;;
47299;SDS011;33036;51.320;17.234;2022-07-24T18:15:24;3.42;;;2.35;;
47299;SDS011;33036;51.320;17.234;2022-07-24T18:19:25;10.23;;;4.55;;
47299;SDS011;33036;51.320;17.234;2022-07-24T18:23:26;10.18;;;4.68;;
47299;SDS011;33036;51.320;17.234;2022-07-24T18:27:27;24.85;;;9.98;;
47299;SDS011;33036;51.320;17.234;2022-07-24T18:31:28;24.40;;;9.20;;
47299;SDS011;33036;51.320;17.234;2022-07-24T18:35:29;23.08;;;9.13;;
47299;SDS011;33036;51.320;17.234;2022-07-24T18:39:30;36.40;;;14.02;;
47299;SDS011;33036;51.320;17.234;2022-07-24T18:43:31;22.08;;;10.30;;
47299;SDS011;33036;51.320;17.234;2022-07-24T18:47:32;15.80;;;7.75;;
47299;SDS011;33036;51.320;17.234;2022-07-24T18:51:34;16.88;;;6.88;;
47299;SDS011;33036;51.320;17.234;2022-07-24T18:55:36;11.32;;;4.18;;
47299;SDS011;33036;51.320;17.234;2022-07-24T18:59:37;8.80;;;2.50;;
47299;SDS011;33036;51.320;17.234;2022-07-24T19:03:38;4.07;;;3.03;;
47299;SDS011;33036;51.320;17.234;2022-07-24T19:07:38;7.65;;;3.08;;
47299;SDS011;33036;51.320;17.234;2022-07-24T19:11:40;5.72;;;2.40;;
47299;SDS011;33036;51.320;17.234;2022-07-24T19:15:41;7.55;;;2.95;;
47299;SDS011;33036;51.320;17.234;2022-07-24T19:19:42;4.72;;;2.90;;
47299;SDS011;33036;51.320;17.234;2022-07-24T19:23:44;4.03;;;2.35;;
47299;SDS011;33036;51.320;17.234;2022-07-24T19:27:47;3.20;;;2.25;;
47299;SDS011;33036;51.320;17.234;2022-07-24T19:31:48;3.70;;;1.83;;
47299;SDS011;33036;51.320;17.234;2022-07-24T19:35:57;3.13;;;2.10;;
47299;SDS011;33036;51.320;17.234;2022-07-24T19:39:58;4.93;;;2.30;;
47299;SDS011;33036;51.320;17.234;2022-07-24T19:44:23;5.55;;;2.58;;
47299;SDS011;33036;51.320;17.234;2022-07-24T19:48:24;6.25;;;2.50;;
47299;SDS011;33036;51.320;17.234;2022-07-24T19:52:25;3.63;;;2.30;;
47299;SDS011;33036;51.320;17.234;2022-07-24T19:56:28;5.18;;;3.90;;
47299;SDS011;33036;51.320;17.234;2022-07-24T20:00:29;5.57;;;3.22;;
47299;SDS011;33036;51.320;17.234;2022-07-24T20:04:30;3.90;;;2.72;;
47299;SDS011;33036;51.320;17.234;2022-07-24T20:08:31;6.95;;;2.40;;
47299;SDS011;33036;51.320;17.234;2022-07-24T20:12:32;4.78;;;2.22;;
47299;SDS011;33036;51.320;17.234;2022-07-24T20:16:33;3.47;;;1.88;;
47299;SDS011;33036;51.320;17.234;2022-07-24T20:20:34;6.13;;;2.00;;
47299;SDS011;33036;51.320;17.234;2022-07-24T20:24:36;8.05;;;1.73;;
47299;SDS011;33036;51.320;17.234;2022-07-24T20:28:37;2.35;;;1.60;;
47299;SDS011;33036;51.320;17.234;2022-07-24T20:32:38;7.93;;;1.98;;
47299;SDS011;33036;51.320;17.234;2022-07-24T20:36:39;3.97;;;1.80;;
47299;SDS011;33036;51.320;17.234;2022-07-24T20:40:40;5.05;;;1.60;;
47299;SDS011;33036;51.320;17.234;2022-07-24T20:44:41;2.67;;;1.55;;
47299;SDS011;33036;51.320;17.234;2022-07-24T20:48:42;3.28;;;1.88;;
47299;SDS011;33036;51.320;17.234;2022-07-24T20:52:43;3.15;;;1.95;;
47299;SDS011;33036;51.320;17.234;2022-07-24T20:56:44;2.13;;;1.77;;
47299;SDS011;33036;51.320;17.234;2022-07-24T21:00:45;5.07;;;1.98;;
47299;SDS011;33036;51.320;17.234;2022-07-24T21:04:46;2.95;;;2.13;;
47299;SDS011;33036;51.320;17.234;2022-07-24T21:08:47;5.65;;;2.08;;
47299;SDS011;33036;51.320;17.234;2022-07-24T21:12:48;4.72;;;1.85;;
47299;SDS011;33036;51.320;17.234;2022-07-24T21:16:49;7.63;;;2.08;;
47299;SDS011;33036;51.320;17.234;2022-07-24T21:20:50;3.05;;;1.88;;
47299;SDS011;33036;51.320;17.234;2022-07-24T21:24:52;3.80;;;2.10;;
47299;SDS011;33036;51.320;17.234;2022-07-24T21:28:53;8.80;;;2.90;;
47299;SDS011;33036;51.320;17.234;2022-07-24T21:32:54;4.72;;;2.25;;
47299;SDS011;33036;51.320;17.234;2022-07-24T21:36:55;8.05;;;2.10;;
47299;SDS011;33036;51.320;17.234;2022-07-24T21:40:56;2.83;;;1.85;;
47299;SDS011;33036;51.320;17.234;2022-07-24T21:44:57;4.47;;;1.92;;
47299;SDS011;33036;51.320;17.234;2022-07-24T21:48:58;4.88;;;2.30;;
47299;SDS011;33036;51.320;17.234;2022-07-24T21:52:59;6.53;;;2.10;;
47299;SDS011;33036;51.320;17.234;2022-07-24T21:57:00;3.25;;;1.85;;
47299;SDS011;33036;51.320;17.234;2022-07-24T22:01:01;3.83;;;2.00;;
47299;SDS011;33036;51.320;17.234;2022-07-24T22:05:02;5.82;;;2.00;;
47299;SDS011;33036;51.320;17.234;2022-07-24T22:09:03;2.70;;;2.00;;
47299;SDS011;33036;51.320;17.234;2022-07-24T22:13:04;6.82;;;2.00;;
47299;SDS011;33036;51.320;17.234;2022-07-24T22:17:05;4.82;;;2.40;;
47299;SDS011;33036;51.320;17.234;2022-07-24T22:21:06;4.63;;;2.20;;
47299;SDS011;33036;51.320;17.234;2022-07-24T22:25:07;3.22;;;2.33;;
47299;SDS011;33036;51.320;17.234;2022-07-24T22:29:09;5.65;;;2.35;;
47299;SDS011;33036;51.320;17.234;2022-07-24T22:33:10;7.65;;;2.38;;
47299;SDS011;33036;51.320;17.234;2022-07-24T22:37:11;10.98;;;2.40;;
47299;SDS011;33036;51.320;17.234;2022-07-24T22:41:12;5.60;;;2.60;;
47299;SDS011;33036;51.320;17.234;2022-07-24T22:45:14;4.18;;;2.22;;
47299;SDS011;33036;51.320;17.234;2022-07-24T22:49:15;4.10;;;1.90;;
47299;SDS011;33036;51.320;17.234;2022-07-24T22:53:16;2.55;;;2.08;;
47299;SDS011;33036;51.320;17.234;2022-07-24T22:57:17;4.63;;;2.35;;
47299;SDS011;33036;51.320;17.234;2022-07-24T23:01:18;4.22;;;2.10;;
47299;SDS011;33036;51.320;17.234;2022-07-24T23:05:20;9.75;;;2.30;;
47299;SDS011;33036;51.320;17.234;2022-07-24T23:09:20;4.70;;;2.50;;
47299;SDS011;33036;51.320;17.234;2022-07-24T23:13:22;3.50;;;2.42;;
47299;SDS011;33036;51.320;17.234;2022-07-24T23:17:22;3.47;;;2.38;;
47299;SDS011;33036;51.320;17.234;2022-07-24T23:21:23;8.57;;;2.90;;
47299;SDS011;33036;51.320;17.234;2022-07-24T23:25:24;5.38;;;2.95;;
47299;SDS011;33036;51.320;17.234;2022-07-24T23:29:25;3.78;;;2.83;;
47299;SDS011;33036;51.320;17.234;2022-07-24T23:33:26;6.22;;;2.55;;
47299;SDS011;33036;51.320;17.234;2022-07-24T23:37:27;4.90;;;2.88;;
47299;SDS011;33036;51.320;17.234;2022-07-24T23:41:28;5.68;;;2.85;;
47299;SDS011;33036;51.320;17.234;2022-07-24T23:45:29;3.67;;;2.75;;
47299;SDS011;33036;51.320;17.234;2022-07-24T23:49:30;4.05;;;2.88;;
47299;SDS011;33036;51.320;17.234;2022-07-24T23:53:31;3.78;;;2.63;;
47299;SDS011;33036;51.320;17.234;2022-07-24T23:57:32;5.10;;;2.90;;
